sensor_id;sensor_type;location;lat;lon;timestamp;P1;durP1;ratioP1;P2;durP2;ratioP2
76121;SDS011;70471;53.200;6.080;2024-02-16T00:00:01;1.48;;;0.60;;
76121;SDS011;70471;53.200;6.080;2024-02-16T00:04:54;1.23;;;0.82;;
76121;SDS011;70471;53.200;6.080;2024-02-16T00:09:46;0.80;;;0.43;;
76121;SDS011;70471;53.200;6.080;2024-02-16T00:14:39;0.75;;;0.60;;
76121;SDS011;70471;53.200;6.080;2024-02-16T00:19:34;1.35;;;0.60;;
76121;SDS011;70471;53.200;6.080;2024-02-16T00:24:26;0.65;;;0.65;;
76121;SDS011;70471;53.200;6.080;2024-02-16T00:29:22;1.13;;;0.80;;
76121;SDS011;70471;53.200;6.080;2024-02-16T00:34:14;0.63;;;0.30;;
76121;SDS011;70471;53.200;6.080;2024-02-16T00:39:08;1.02;;;0.70;;
76121;SDS011;70471;53.200;6.080;2024-02-16T00:44:00;1.05;;;0.50;;
76121;SDS011;70471;53.200;6.080;2024-02-16T00:48:52;0.57;;;0.57;;
76121;SDS011;70471;53.200;6.080;2024-02-16T00:53:46;0.70;;;0.45;;
76121;SDS011;70471;53.200;6.080;2024-02-16T00:58:41;1.02;;;0.50;;
76121;SDS011;70471;53.200;6.080;2024-02-16T01:03:33;1.50;;;0.73;;
76121;SDS011;70471;53.200;6.080;2024-02-16T01:08:27;0.60;;;0.50;;
76121;SDS011;70471;53.200;6.080;2024-02-16T01:13:20;0.70;;;0.60;;
76121;SDS011;70471;53.200;6.080;2024-02-16T01:18:14;1.15;;;0.60;;
76121;SDS011;70471;53.200;6.080;2024-02-16T01:23:07;1.52;;;1.25;;
76121;SDS011;70471;53.200;6.080;2024-02-16T01:27:59;1.05;;;0.70;;
76121;SDS011;70471;53.200;6.080;2024-02-16T01:32:51;0.50;;;0.45;;
76121;SDS011;70471;53.200;6.080;2024-02-16T01:37:45;0.52;;;0.50;;
76121;SDS011;70471;53.200;6.080;2024-02-16T01:42:37;0.80;;;0.50;;
76121;SDS011;70471;53.200;6.080;2024-02-16T01:47:30;0.93;;;0.55;;
76121;SDS011;70471;53.200;6.080;2024-02-16T01:52:22;0.80;;;0.60;;
76121;SDS011;70471;53.200;6.080;2024-02-16T01:57:16;1.20;;;0.68;;
76121;SDS011;70471;53.200;6.080;2024-02-16T02:02:09;1.23;;;0.50;;
76121;SDS011;70471;53.200;6.080;2024-02-16T02:07:10;0.60;;;0.40;;
76121;SDS011;70471;53.200;6.080;2024-02-16T02:12:04;0.70;;;0.70;;
76121;SDS011;70471;53.200;6.080;2024-02-16T02:16:58;2.03;;;0.60;;
76121;SDS011;70471;53.200;6.080;2024-02-16T02:21:51;0.65;;;0.55;;
76121;SDS011;70471;53.200;6.080;2024-02-16T02:26:45;0.82;;;0.57;;
76121;SDS011;70471;53.200;6.080;2024-02-16T02:31:37;0.98;;;0.60;;
76121;SDS011;70471;53.200;6.080;2024-02-16T02:36:30;1.63;;;0.68;;
76121;SDS011;70471;53.200;6.080;2024-02-16T02:41:23;0.68;;;0.50;;
76121;SDS011;70471;53.200;6.080;2024-02-16T02:46:17;2.50;;;0.68;;
76121;SDS011;70471;53.200;6.080;2024-02-16T02:51:09;0.50;;;0.50;;
76121;SDS011;70471;53.200;6.080;2024-02-16T02:56:02;0.75;;;0.50;;
76121;SDS011;70471;53.200;6.080;2024-02-16T03:00:54;0.57;;;0.55;;
76121;SDS011;70471;53.200;6.080;2024-02-16T03:05:49;1.10;;;0.70;;
76121;SDS011;70471;53.200;6.080;2024-02-16T03:10:43;0.95;;;0.60;;
76121;SDS011;70471;53.200;6.080;2024-02-16T03:15:35;0.85;;;0.60;;
76121;SDS011;70471;53.200;6.080;2024-02-16T03:20:29;1.10;;;0.60;;
76121;SDS011;70471;53.200;6.080;2024-02-16T03:25:22;0.47;;;0.40;;
76121;SDS011;70471;53.200;6.080;2024-02-16T03:30:16;0.88;;;0.57;;
76121;SDS011;70471;53.200;6.080;2024-02-16T03:35:09;0.73;;;0.50;;
76121;SDS011;70471;53.200;6.080;2024-02-16T03:40:04;2.15;;;0.80;;
76121;SDS011;70471;53.200;6.080;2024-02-16T03:45:00;1.33;;;0.57;;
76121;SDS011;70471;53.200;6.080;2024-02-16T03:49:53;0.70;;;0.60;;
76121;SDS011;70471;53.200;6.080;2024-02-16T03:54:45;0.88;;;0.55;;
76121;SDS011;70471;53.200;6.080;2024-02-16T03:59:39;1.23;;;0.60;;
76121;SDS011;70471;53.200;6.080;2024-02-16T04:04:33;0.40;;;0.40;;
76121;SDS011;70471;53.200;6.080;2024-02-16T04:09:26;1.13;;;0.65;;
76121;SDS011;70471;53.200;6.080;2024-02-16T04:14:18;0.77;;;0.50;;
76121;SDS011;70471;53.200;6.080;2024-02-16T04:19:11;0.88;;;0.50;;
76121;SDS011;70471;53.200;6.080;2024-02-16T04:24:05;1.08;;;0.77;;
76121;SDS011;70471;53.200;6.080;2024-02-16T04:28:57;0.57;;;0.30;;
76121;SDS011;70471;53.200;6.080;2024-02-16T04:33:49;0.50;;;0.50;;
76121;SDS011;70471;53.200;6.080;2024-02-16T04:38:42;1.00;;;0.55;;
76121;SDS011;70471;53.200;6.080;2024-02-16T04:43:35;1.17;;;0.70;;
76121;SDS011;70471;53.200;6.080;2024-02-16T04:48:28;0.47;;;0.30;;
76121;SDS011;70471;53.200;6.080;2024-02-16T04:53:21;1.00;;;0.60;;
76121;SDS011;70471;53.200;6.080;2024-02-16T04:58:13;0.75;;;0.50;;
76121;SDS011;70471;53.200;6.080;2024-02-16T05:03:07;0.73;;;0.45;;
76121;SDS011;70471;53.200;6.080;2024-02-16T05:08:00;0.95;;;0.60;;
76121;SDS011;70471;53.200;6.080;2024-02-16T05:12:52;1.23;;;0.60;;
76121;SDS011;70471;53.200;6.080;2024-02-16T05:17:47;0.65;;;0.50;;
76121;SDS011;70471;53.200;6.080;2024-02-16T05:22:42;0.63;;;0.60;;
76121;SDS011;70471;53.200;6.080;2024-02-16T05:27:36;0.63;;;0.60;;
76121;SDS011;70471;53.200;6.080;2024-02-16T05:32:27;0.70;;;0.45;;
76121;SDS011;70471;53.200;6.080;2024-02-16T05:37:20;1.23;;;0.85;;
76121;SDS011;70471;53.200;6.080;2024-02-16T05:42:14;1.17;;;0.85;;
76121;SDS011;70471;53.200;6.080;2024-02-16T05:47:06;0.85;;;0.70;;
76121;SDS011;70471;53.200;6.080;2024-02-16T05:57:03;0.65;;;0.60;;
76121;SDS011;70471;53.200;6.080;2024-02-16T06:01:57;1.00;;;0.73;;
76121;SDS011;70471;53.200;6.080;2024-02-16T06:06:50;0.57;;;0.40;;
76121;SDS011;70471;53.200;6.080;2024-02-16T06:11:44;1.27;;;0.50;;
76121;SDS011;70471;53.200;6.080;2024-02-16T06:16:36;1.25;;;0.70;;
76121;SDS011;70471;53.200;6.080;2024-02-16T06:21:29;1.10;;;0.70;;
76121;SDS011;70471;53.200;6.080;2024-02-16T06:26:21;1.15;;;0.70;;
76121;SDS011;70471;53.200;6.080;2024-02-16T06:31:13;0.80;;;0.80;;
76121;SDS011;70471;53.200;6.080;2024-02-16T06:36:06;1.02;;;0.60;;
76121;SDS011;70471;53.200;6.080;2024-02-16T06:41:01;0.75;;;0.60;;
76121;SDS011;70471;53.200;6.080;2024-02-16T06:45:53;1.40;;;0.60;;
76121;SDS011;70471;53.200;6.080;2024-02-16T06:50:47;0.75;;;0.63;;
76121;SDS011;70471;53.200;6.080;2024-02-16T06:55:39;1.98;;;0.70;;
76121;SDS011;70471;53.200;6.080;2024-02-16T07:00:34;1.27;;;0.88;;
76121;SDS011;70471;53.200;6.080;2024-02-16T07:05:26;1.00;;;0.70;;
76121;SDS011;70471;53.200;6.080;2024-02-16T07:10:21;1.00;;;0.82;;
76121;SDS011;70471;53.200;6.080;2024-02-16T07:15:14;1.15;;;0.65;;
76121;SDS011;70471;53.200;6.080;2024-02-16T07:20:08;1.27;;;0.90;;
76121;SDS011;70471;53.200;6.080;2024-02-16T07:25:01;0.95;;;0.70;;
76121;SDS011;70471;53.200;6.080;2024-02-16T07:29:54;0.90;;;0.70;;
76121;SDS011;70471;53.200;6.080;2024-02-16T07:34:46;1.17;;;0.73;;
76121;SDS011;70471;53.200;6.080;2024-02-16T07:39:41;1.33;;;0.63;;
76121;SDS011;70471;53.200;6.080;2024-02-16T07:44:33;1.48;;;0.70;;
76121;SDS011;70471;53.200;6.080;2024-02-16T07:49:26;1.02;;;0.70;;
76121;SDS011;70471;53.200;6.080;2024-02-16T07:54:18;1.13;;;0.70;;
76121;SDS011;70471;53.200;6.080;2024-02-16T07:59:12;1.70;;;0.90;;
76121;SDS011;70471;53.200;6.080;2024-02-16T08:04:03;0.85;;;0.70;;
76121;SDS011;70471;53.200;6.080;2024-02-16T08:08:55;0.77;;;0.70;;
76121;SDS011;70471;53.200;6.080;2024-02-16T08:13:47;1.10;;;0.90;;
76121;SDS011;70471;53.200;6.080;2024-02-16T08:18:40;0.77;;;0.63;;
76121;SDS011;70471;53.200;6.080;2024-02-16T08:23:35;1.27;;;0.77;;
76121;SDS011;70471;53.200;6.080;2024-02-16T08:28:28;1.17;;;0.80;;
76121;SDS011;70471;53.200;6.080;2024-02-16T08:33:20;1.58;;;0.93;;
76121;SDS011;70471;53.200;6.080;2024-02-16T08:38:14;1.00;;;0.60;;
76121;SDS011;70471;53.200;6.080;2024-02-16T08:43:06;0.85;;;0.60;;
76121;SDS011;70471;53.200;6.080;2024-02-16T08:47:58;1.45;;;0.75;;
76121;SDS011;70471;53.200;6.080;2024-02-16T08:52:53;1.00;;;0.88;;
76121;SDS011;70471;53.200;6.080;2024-02-16T08:57:47;0.88;;;0.70;;
76121;SDS011;70471;53.200;6.080;2024-02-16T09:02:40;1.50;;;0.70;;
76121;SDS011;70471;53.200;6.080;2024-02-16T09:07:32;0.73;;;0.60;;
76121;SDS011;70471;53.200;6.080;2024-02-16T09:12:25;1.45;;;0.68;;
76121;SDS011;70471;53.200;6.080;2024-02-16T09:17:18;0.85;;;0.60;;
76121;SDS011;70471;53.200;6.080;2024-02-16T09:22:10;1.00;;;0.82;;
76121;SDS011;70471;53.200;6.080;2024-02-16T09:27:03;1.08;;;0.65;;
76121;SDS011;70471;53.200;6.080;2024-02-16T09:31:56;0.77;;;0.70;;
76121;SDS011;70471;53.200;6.080;2024-02-16T09:36:50;1.67;;;0.80;;
76121;SDS011;70471;53.200;6.080;2024-02-16T09:41:42;1.85;;;0.70;;
76121;SDS011;70471;53.200;6.080;2024-02-16T09:46:35;1.55;;;1.00;;
76121;SDS011;70471;53.200;6.080;2024-02-16T09:51:27;1.65;;;1.15;;
76121;SDS011;70471;53.200;6.080;2024-02-16T09:56:21;1.63;;;0.90;;
76121;SDS011;70471;53.200;6.080;2024-02-16T10:01:18;0.80;;;0.80;;
76121;SDS011;70471;53.200;6.080;2024-02-16T10:06:11;1.30;;;0.88;;
76121;SDS011;70471;53.200;6.080;2024-02-16T10:11:05;0.85;;;0.57;;
76121;SDS011;70471;53.200;6.080;2024-02-16T10:16:06;1.77;;;0.70;;
76121;SDS011;70471;53.200;6.080;2024-02-16T10:20:59;1.45;;;1.08;;
76121;SDS011;70471;53.200;6.080;2024-02-16T10:25:51;1.25;;;1.10;;
76121;SDS011;70471;53.200;6.080;2024-02-16T10:30:44;1.40;;;0.98;;
76121;SDS011;70471;53.200;6.080;2024-02-16T10:35:38;1.10;;;0.70;;
76121;SDS011;70471;53.200;6.080;2024-02-16T10:40:32;1.90;;;1.02;;
76121;SDS011;70471;53.200;6.080;2024-02-16T10:45:25;1.42;;;1.10;;
76121;SDS011;70471;53.200;6.080;2024-02-16T10:50:17;1.05;;;0.85;;
76121;SDS011;70471;53.200;6.080;2024-02-16T10:55:11;1.83;;;1.10;;
76121;SDS011;70471;53.200;6.080;2024-02-16T11:00:09;1.83;;;1.30;;
76121;SDS011;70471;53.200;6.080;2024-02-16T11:05:07;2.05;;;1.20;;
76121;SDS011;70471;53.200;6.080;2024-02-16T11:09:59;1.55;;;1.23;;
76121;SDS011;70471;53.200;6.080;2024-02-16T11:14:52;4.03;;;1.38;;
76121;SDS011;70471;53.200;6.080;2024-02-16T11:19:48;1.70;;;1.13;;
76121;SDS011;70471;53.200;6.080;2024-02-16T11:24:42;4.07;;;1.40;;
76121;SDS011;70471;53.200;6.080;2024-02-16T11:29:36;1.75;;;1.15;;
76121;SDS011;70471;53.200;6.080;2024-02-16T11:34:30;2.30;;;1.30;;
76121;SDS011;70471;53.200;6.080;2024-02-16T11:39:24;1.98;;;1.00;;
76121;SDS011;70471;53.200;6.080;2024-02-16T11:44:17;1.10;;;1.00;;
76121;SDS011;70471;53.200;6.080;2024-02-16T11:49:09;1.75;;;1.00;;
76121;SDS011;70471;53.200;6.080;2024-02-16T11:54:04;2.03;;;1.02;;
76121;SDS011;70471;53.200;6.080;2024-02-16T11:58:56;2.30;;;1.00;;
76121;SDS011;70471;53.200;6.080;2024-02-16T12:03:48;1.20;;;0.68;;
76121;SDS011;70471;53.200;6.080;2024-02-16T12:08:41;2.38;;;0.95;;
76121;SDS011;70471;53.200;6.080;2024-02-16T12:13:34;1.33;;;0.90;;
76121;SDS011;70471;53.200;6.080;2024-02-16T12:18:27;0.75;;;0.70;;
76121;SDS011;70471;53.200;6.080;2024-02-16T12:23:19;0.95;;;0.77;;
76121;SDS011;70471;53.200;6.080;2024-02-16T12:28:13;1.23;;;0.90;;
76121;SDS011;70471;53.200;6.080;2024-02-16T12:33:06;1.02;;;0.60;;
76121;SDS011;70471;53.200;6.080;2024-02-16T12:37:59;0.55;;;0.55;;
76121;SDS011;70471;53.200;6.080;2024-02-16T12:42:51;0.80;;;0.70;;
76121;SDS011;70471;53.200;6.080;2024-02-16T12:47:43;0.77;;;0.63;;
76121;SDS011;70471;53.200;6.080;2024-02-16T12:52:38;0.75;;;0.55;;
76121;SDS011;70471;53.200;6.080;2024-02-16T12:57:30;0.40;;;0.30;;
76121;SDS011;70471;53.200;6.080;2024-02-16T13:02:23;0.77;;;0.57;;
76121;SDS011;70471;53.200;6.080;2024-02-16T13:07:15;0.47;;;0.40;;
76121;SDS011;70471;53.200;6.080;2024-02-16T13:12:08;0.77;;;0.30;;
76121;SDS011;70471;53.200;6.080;2024-02-16T13:17:01;0.60;;;0.50;;
76121;SDS011;70471;53.200;6.080;2024-02-16T13:21:53;0.68;;;0.30;;
76121;SDS011;70471;53.200;6.080;2024-02-16T13:26:45;0.32;;;0.20;;
76121;SDS011;70471;53.200;6.080;2024-02-16T13:31:38;1.45;;;0.70;;
76121;SDS011;70471;53.200;6.080;2024-02-16T13:36:32;1.10;;;0.52;;
76121;SDS011;70471;53.200;6.080;2024-02-16T13:41:24;0.88;;;0.30;;
76121;SDS011;70471;53.200;6.080;2024-02-16T13:46:17;2.85;;;0.65;;
76121;SDS011;70471;53.200;6.080;2024-02-16T13:51:10;12.15;;;1.35;;
76121;SDS011;70471;53.200;6.080;2024-02-16T13:56:03;4.43;;;0.90;;
76121;SDS011;70471;53.200;6.080;2024-02-16T14:00:56;3.70;;;0.73;;
76121;SDS011;70471;53.200;6.080;2024-02-16T14:05:50;1.60;;;0.40;;
76121;SDS011;70471;53.200;6.080;2024-02-16T14:10:44;1.08;;;0.25;;
76121;SDS011;70471;53.200;6.080;2024-02-16T14:15:36;1.30;;;0.30;;
76121;SDS011;70471;53.200;6.080;2024-02-16T14:20:29;1.35;;;0.20;;
76121;SDS011;70471;53.200;6.080;2024-02-16T14:25:22;1.30;;;0.22;;
76121;SDS011;70471;53.200;6.080;2024-02-16T14:30:18;1.13;;;0.50;;
76121;SDS011;70471;53.200;6.080;2024-02-16T14:35:11;0.93;;;0.30;;
76121;SDS011;70471;53.200;6.080;2024-02-16T14:40:04;1.17;;;0.60;;
76121;SDS011;70471;53.200;6.080;2024-02-16T14:45:00;0.52;;;0.20;;
76121;SDS011;70471;53.200;6.080;2024-02-16T14:49:54;0.47;;;0.38;;
76121;SDS011;70471;53.200;6.080;2024-02-16T14:54:47;0.57;;;0.30;;
76121;SDS011;70471;53.200;6.080;2024-02-16T14:59:39;0.90;;;0.22;;
76121;SDS011;70471;53.200;6.080;2024-02-16T15:04:32;0.88;;;0.32;;
76121;SDS011;70471;53.200;6.080;2024-02-16T15:09:26;0.70;;;0.40;;
76121;SDS011;70471;53.200;6.080;2024-02-16T15:14:19;0.93;;;0.40;;
76121;SDS011;70471;53.200;6.080;2024-02-16T15:19:13;0.90;;;0.50;;
76121;SDS011;70471;53.200;6.080;2024-02-16T15:24:05;0.38;;;0.38;;
76121;SDS011;70471;53.200;6.080;2024-02-16T15:29:00;1.23;;;0.30;;
76121;SDS011;70471;53.200;6.080;2024-02-16T15:33:51;0.80;;;0.35;;
76121;SDS011;70471;53.200;6.080;2024-02-16T15:38:43;0.43;;;0.30;;
76121;SDS011;70471;53.200;6.080;2024-02-16T15:43:36;1.02;;;0.40;;
76121;SDS011;70471;53.200;6.080;2024-02-16T15:48:29;1.40;;;0.47;;
76121;SDS011;70471;53.200;6.080;2024-02-16T15:53:22;0.60;;;0.20;;
76121;SDS011;70471;53.200;6.080;2024-02-16T15:58:15;1.10;;;0.30;;
76121;SDS011;70471;53.200;6.080;2024-02-16T16:03:07;1.85;;;0.60;;
76121;SDS011;70471;53.200;6.080;2024-02-16T16:08:02;1.65;;;0.57;;
76121;SDS011;70471;53.200;6.080;2024-02-16T16:12:54;0.57;;;0.25;;
76121;SDS011;70471;53.200;6.080;2024-02-16T16:17:47;1.10;;;0.52;;
76121;SDS011;70471;53.200;6.080;2024-02-16T16:22:40;0.63;;;0.40;;
76121;SDS011;70471;53.200;6.080;2024-02-16T16:27:33;0.57;;;0.30;;
76121;SDS011;70471;53.200;6.080;2024-02-16T16:32:25;0.50;;;0.32;;
76121;SDS011;70471;53.200;6.080;2024-02-16T16:37:17;1.58;;;0.40;;
76121;SDS011;70471;53.200;6.080;2024-02-16T16:42:10;1.60;;;0.50;;
76121;SDS011;70471;53.200;6.080;2024-02-16T16:47:05;0.65;;;0.40;;
76121;SDS011;70471;53.200;6.080;2024-02-16T16:51:57;1.10;;;0.50;;
76121;SDS011;70471;53.200;6.080;2024-02-16T16:56:49;1.17;;;0.50;;
76121;SDS011;70471;53.200;6.080;2024-02-16T17:01:42;1.30;;;0.60;;
76121;SDS011;70471;53.200;6.080;2024-02-16T17:06:35;0.82;;;0.63;;
76121;SDS011;70471;53.200;6.080;2024-02-16T17:11:28;1.63;;;0.63;;
76121;SDS011;70471;53.200;6.080;2024-02-16T17:16:23;0.73;;;0.57;;
76121;SDS011;70471;53.200;6.080;2024-02-16T17:21:15;0.52;;;0.50;;
76121;SDS011;70471;53.200;6.080;2024-02-16T17:26:09;1.23;;;0.90;;
76121;SDS011;70471;53.200;6.080;2024-02-16T17:31:01;1.38;;;0.65;;
76121;SDS011;70471;53.200;6.080;2024-02-16T17:35:53;0.98;;;0.80;;
76121;SDS011;70471;53.200;6.080;2024-02-16T17:40:45;0.68;;;0.50;;
76121;SDS011;70471;53.200;6.080;2024-02-16T17:45:39;2.05;;;0.80;;
76121;SDS011;70471;53.200;6.080;2024-02-16T17:50:32;1.10;;;0.57;;
76121;SDS011;70471;53.200;6.080;2024-02-16T17:55:24;0.63;;;0.50;;
76121;SDS011;70471;53.200;6.080;2024-02-16T18:00:17;0.95;;;0.60;;
76121;SDS011;70471;53.200;6.080;2024-02-16T18:05:12;0.80;;;0.77;;
76121;SDS011;70471;53.200;6.080;2024-02-16T18:10:04;2.03;;;0.82;;
76121;SDS011;70471;53.200;6.080;2024-02-16T18:14:57;0.88;;;0.65;;
76121;SDS011;70471;53.200;6.080;2024-02-16T18:19:50;1.15;;;1.05;;
76121;SDS011;70471;53.200;6.080;2024-02-16T18:24:44;1.33;;;0.80;;
76121;SDS011;70471;53.200;6.080;2024-02-16T18:29:36;1.58;;;0.60;;
76121;SDS011;70471;53.200;6.080;2024-02-16T18:34:28;0.93;;;0.65;;
76121;SDS011;70471;53.200;6.080;2024-02-16T18:39:20;1.52;;;0.80;;
76121;SDS011;70471;53.200;6.080;2024-02-16T18:44:16;1.42;;;0.82;;
76121;SDS011;70471;53.200;6.080;2024-02-16T18:49:09;1.83;;;0.73;;
76121;SDS011;70471;53.200;6.080;2024-02-16T18:54:01;0.75;;;0.50;;
76121;SDS011;70471;53.200;6.080;2024-02-16T18:58:55;2.03;;;0.93;;
76121;SDS011;70471;53.200;6.080;2024-02-16T19:03:49;1.63;;;0.63;;
76121;SDS011;70471;53.200;6.080;2024-02-16T19:08:42;1.08;;;0.70;;
76121;SDS011;70471;53.200;6.080;2024-02-16T19:13:34;1.00;;;0.50;;
76121;SDS011;70471;53.200;6.080;2024-02-16T19:18:28;1.65;;;0.82;;
76121;SDS011;70471;53.200;6.080;2024-02-16T19:23:22;1.00;;;0.73;;
76121;SDS011;70471;53.200;6.080;2024-02-16T19:28:13;2.17;;;0.60;;
76121;SDS011;70471;53.200;6.080;2024-02-16T19:33:05;0.90;;;0.60;;
76121;SDS011;70471;53.200;6.080;2024-02-16T19:37:58;1.17;;;0.60;;
76121;SDS011;70471;53.200;6.080;2024-02-16T19:42:52;1.67;;;0.73;;
76121;SDS011;70471;53.200;6.080;2024-02-16T19:47:45;1.42;;;0.45;;
76121;SDS011;70471;53.200;6.080;2024-02-16T19:52:37;1.80;;;0.63;;
76121;SDS011;70471;53.200;6.080;2024-02-16T19:57:29;0.85;;;0.50;;
76121;SDS011;70471;53.200;6.080;2024-02-16T20:02:23;2.40;;;0.50;;
76121;SDS011;70471;53.200;6.080;2024-02-16T20:07:15;1.35;;;0.70;;
76121;SDS011;70471;53.200;6.080;2024-02-16T20:12:07;1.35;;;0.57;;
76121;SDS011;70471;53.200;6.080;2024-02-16T20:17:00;1.25;;;0.90;;
76121;SDS011;70471;53.200;6.080;2024-02-16T20:21:53;1.13;;;0.57;;
76121;SDS011;70471;53.200;6.080;2024-02-16T20:26:47;3.33;;;0.70;;
76121;SDS011;70471;53.200;6.080;2024-02-16T20:31:40;1.42;;;0.80;;
76121;SDS011;70471;53.200;6.080;2024-02-16T20:36:32;1.85;;;0.70;;
76121;SDS011;70471;53.200;6.080;2024-02-16T20:41:26;3.15;;;0.65;;
76121;SDS011;70471;53.200;6.080;2024-02-16T20:46:18;0.68;;;0.52;;
76121;SDS011;70471;53.200;6.080;2024-02-16T20:51:11;1.92;;;0.82;;
76121;SDS011;70471;53.200;6.080;2024-02-16T20:56:03;2.58;;;0.90;;
76121;SDS011;70471;53.200;6.080;2024-02-16T21:00:58;1.38;;;0.73;;
76121;SDS011;70471;53.200;6.080;2024-02-16T21:05:50;2.63;;;1.00;;
76121;SDS011;70471;53.200;6.080;2024-02-16T21:10:42;1.35;;;0.50;;
76121;SDS011;70471;53.200;6.080;2024-02-16T21:15:35;1.00;;;0.52;;
76121;SDS011;70471;53.200;6.080;2024-02-16T21:20:29;1.67;;;0.50;;
76121;SDS011;70471;53.200;6.080;2024-02-16T21:25:21;2.58;;;0.75;;
76121;SDS011;70471;53.200;6.080;2024-02-16T21:30:14;1.70;;;0.80;;
76121;SDS011;70471;53.200;6.080;2024-02-16T21:35:07;1.90;;;0.98;;
76121;SDS011;70471;53.200;6.080;2024-02-16T21:40:03;1.20;;;0.55;;
76121;SDS011;70471;53.200;6.080;2024-02-16T21:44:56;0.70;;;0.50;;
76121;SDS011;70471;53.200;6.080;2024-02-16T21:49:48;2.60;;;0.80;;
76121;SDS011;70471;53.200;6.080;2024-02-16T21:54:40;0.93;;;0.50;;
76121;SDS011;70471;53.200;6.080;2024-02-16T21:59:34;1.23;;;0.63;;
76121;SDS011;70471;53.200;6.080;2024-02-16T22:04:26;1.17;;;0.60;;
76121;SDS011;70471;53.200;6.080;2024-02-16T22:09:19;1.55;;;0.57;;
76121;SDS011;70471;53.200;6.080;2024-02-16T22:14:11;1.42;;;0.70;;
76121;SDS011;70471;53.200;6.080;2024-02-16T22:19:05;1.75;;;0.52;;
76121;SDS011;70471;53.200;6.080;2024-02-16T22:23:57;1.08;;;0.50;;
76121;SDS011;70471;53.200;6.080;2024-02-16T22:28:50;1.90;;;0.60;;
76121;SDS011;70471;53.200;6.080;2024-02-16T22:33:42;1.15;;;0.40;;
76121;SDS011;70471;53.200;6.080;2024-02-16T22:38:35;0.63;;;0.50;;
76121;SDS011;70471;53.200;6.080;2024-02-16T22:43:28;0.70;;;0.50;;
76121;SDS011;70471;53.200;6.080;2024-02-16T22:48:21;1.55;;;0.50;;
76121;SDS011;70471;53.200;6.080;2024-02-16T22:53:14;1.10;;;0.63;;
76121;SDS011;70471;53.200;6.080;2024-02-16T22:58:08;1.27;;;0.50;;
76121;SDS011;70471;53.200;6.080;2024-02-16T23:03:01;1.23;;;0.45;;
76121;SDS011;70471;53.200;6.080;2024-02-16T23:07:55;1.08;;;0.60;;
76121;SDS011;70471;53.200;6.080;2024-02-16T23:12:47;0.70;;;0.40;;
76121;SDS011;70471;53.200;6.080;2024-02-16T23:17:41;0.88;;;0.38;;
76121;SDS011;70471;53.200;6.080;2024-02-16T23:22:34;2.92;;;0.60;;
76121;SDS011;70471;53.200;6.080;2024-02-16T23:27:26;1.88;;;0.47;;
76121;SDS011;70471;53.200;6.080;2024-02-16T23:32:18;1.17;;;0.50;;
76121;SDS011;70471;53.200;6.080;2024-02-16T23:37:12;0.40;;;0.40;;
76121;SDS011;70471;53.200;6.080;2024-02-16T23:42:04;0.52;;;0.45;;
76121;SDS011;70471;53.200;6.080;2024-02-16T23:46:56;1.88;;;0.60;;
76121;SDS011;70471;53.200;6.080;2024-02-16T23:51:49;0.95;;;0.55;;
76121;SDS011;70471;53.200;6.080;2024-02-16T23:56:43;0.32;;;0.20;;
